Time;durP1;ratioP1;P1;durP2;ratioP2;P2;SDS_P1;SDS_P2;PMS_P1;PMS_P2;Temp;Humidity;BMP_temperature;BMP_pressure;BME280_temperature;BME280_humidity;BME280_pressure;Samples;Min_cycle;Max_cycle;Signal;HPM_P1;HPM_P2
2023/06/11 00:01:58;;;;;;;13.68;9.40;;;17.20;99.90;;;;;;5093907;28;20131;-75
2023/06/11 00:04:27;;;;;;;16.70;10.95;;;17.20;99.90;;;;;;5093899;28;20498;-75
2023/06/11 00:06:54;;;;;;;14.98;9.57;;;17.20;99.90;;;;;;5092748;28;20123;-75
2023/06/11 00:09:23;;;;;;;16.98;10.52;;;17.20;99.90;;;;;;5094202;28;20040;-75
2023/06/11 00:11:48;;;;;;;18.13;9.82;;;17.10;99.90;;;;;;5092670;28;20072;-75
2023/06/11 00:14:14;;;;;;;16.90;9.70;;;17.10;99.90;;;;;;5093870;28;20075;-75
2023/06/11 00:16:43;;;;;;;14.07;9.77;;;17.20;99.90;;;;;;5094089;28;20068;-85
2023/06/11 00:19:09;;;;;;;22.63;11.13;;;17.20;99.90;;;;;;5092494;28;20040;-76
2023/06/11 00:21:36;;;;;;;20.67;10.43;;;17.10;99.90;;;;;;5093857;28;20097;-75
2023/06/11 00:24:02;;;;;;;16.67;10.80;;;17.10;99.90;;;;;;5093623;28;20098;-75
2023/06/11 00:26:28;;;;;;;15.43;10.07;;;17.00;99.90;;;;;;5093620;28;20476;-75
2023/06/11 00:28:54;;;;;;;16.42;9.27;;;17.00;99.90;;;;;;5092280;28;20101;-75
2023/06/11 00:31:20;;;;;;;16.00;9.57;;;17.00;99.90;;;;;;5094127;28;20157;-75
2023/06/11 00:33:45;;;;;;;13.13;9.45;;;17.00;99.90;;;;;;5092517;28;20052;-75
2023/06/11 00:36:11;;;;;;;15.85;9.98;;;16.90;99.90;;;;;;5093549;28;20387;-75
2023/06/11 00:38:37;;;;;;;15.57;9.07;;;17.00;99.90;;;;;;5092646;28;20059;-75
2023/06/11 00:41:02;;;;;;;17.83;9.50;;;16.90;99.90;;;;;;5093622;28;20479;-75
2023/06/11 00:43:30;;;;;;;15.93;8.55;;;17.00;99.90;;;;;;5094072;28;20040;-75
2023/06/11 00:45:56;;;;;;;14.93;8.82;;;17.00;99.90;;;;;;5094187;28;20044;-75
2023/06/11 00:48:22;;;;;;;16.33;9.30;;;17.00;99.90;;;;;;5097702;28;20044;-75
2023/06/11 00:50:51;;;;;;;11.68;8.50;;;16.90;99.90;;;;;;5097709;28;20487;-75
2023/06/11 00:53:19;;;;;;;14.60;8.50;;;16.90;99.90;;;;;;5097452;28;20391;-75
2023/06/11 00:55:45;;;;;;;12.80;8.73;;;17.00;99.90;;;;;;5097536;28;20062;-75
2023/06/11 00:58:14;;;;;;;10.65;8.40;;;17.00;99.90;;;;;;5097553;28;20123;-75
2023/06/11 01:00:46;;;;;;;12.25;8.57;;;16.90;99.90;;;;;;5096093;28;20040;-75
2023/06/11 01:03:17;;;;;;;14.93;8.65;;;17.00;99.90;;;;;;5097517;28;20044;-75
2023/06/11 01:05:48;;;;;;;14.05;8.73;;;17.00;99.90;;;;;;5096192;28;20040;-75
2023/06/11 01:08:16;;;;;;;16.88;9.30;;;17.00;99.90;;;;;;5096366;28;20483;-75
2023/06/11 01:10:42;;;;;;;15.70;8.95;;;17.00;99.90;;;;;;5097641;28;20036;-75
2023/06/11 01:13:08;;;;;;;14.25;8.63;;;17.10;99.90;;;;;;5096105;28;20043;-75
2023/06/11 01:15:33;;;;;;;14.00;9.77;;;17.00;99.90;;;;;;5097021;28;20052;-75
2023/06/11 01:18:05;;;;;;;15.07;9.43;;;17.10;99.90;;;;;;5097203;28;20036;-75
2023/06/11 01:20:39;;;;;;;18.73;9.45;;;17.10;99.90;;;;;;5095952;28;20487;-75
2023/06/11 01:23:25;;;;;;;15.20;9.73;;;17.10;99.90;;;;;;5096938;28;20118;-75
2023/06/11 01:26:10;;;;;;;13.77;9.20;;;17.10;99.90;;;;;;5095648;28;20044;-75
2023/06/11 01:28:38;;;;;;;16.05;10.02;;;17.10;99.90;;;;;;5095981;28;20043;-74
2023/06/11 01:31:09;;;;;;;17.27;9.20;;;17.20;99.90;;;;;;5096962;28;20040;-75
2023/06/11 01:33:35;;;;;;;14.68;9.93;;;17.20;99.90;;;;;;5095667;28;20115;-75
2023/06/11 01:36:01;;;;;;;11.95;9.90;;;17.30;99.90;;;;;;5096401;28;20047;-75
2023/06/11 01:38:34;;;;;;;12.70;9.23;;;17.30;99.90;;;;;;5096796;28;20036;-75
2023/06/11 01:41:03;;;;;;;;;;;17.30;99.90;;;;;;5097033;28;20036;-74
2023/06/11 01:43:28;;;;;;;14.07;9.93;;;17.30;99.90;;;;;;5096703;28;19923;-75
2023/06/11 01:45:55;;;;;;;13.25;10.38;;;17.30;99.90;;;;;;5096679;28;20056;-75
2023/06/11 01:48:21;;;;;;;11.63;9.55;;;17.30;99.90;;;;;;5096620;28;20088;-75
2023/06/11 01:50:47;;;;;;;15.88;9.75;;;17.40;99.90;;;;;;5096536;28;20040;-75
2023/06/11 01:53:12;;;;;;;12.77;10.13;;;17.40;99.90;;;;;;5096587;28;20391;-75
2023/06/11 01:55:39;;;;;;;14.85;11.02;;;17.30;99.90;;;;;;5096276;28;20055;-75
2023/06/11 01:58:05;;;;;;;13.43;10.75;;;17.30;99.90;;;;;;5095531;28;20108;-75
2023/06/11 02:00:31;;;;;;;15.60;10.13;;;17.30;99.90;;;;;;5096161;28;20479;-75
2023/06/11 02:02:56;;;;;;;14.43;10.75;;;17.30;99.90;;;;;;5096560;28;20044;-74
2023/06/11 02:05:22;;;;;;;14.57;10.35;;;17.30;99.90;;;;;;5096362;28;20055;-87
2023/06/11 02:07:48;;;;;;;16.27;10.55;;;17.30;99.90;;;;;;5094914;28;20044;-84
2023/06/11 02:10:13;;;;;;;15.10;11.15;;;17.30;99.90;;;;;;5095050;28;20052;-75
2023/06/11 02:12:39;;;;;;;14.13;11.18;;;17.30;99.90;;;;;;5094824;28;20036;-75
2023/06/11 02:15:05;;;;;;;15.52;11.18;;;17.30;99.90;;;;;;5095999;28;20172;-75
2023/06/11 02:17:31;;;;;;;13.02;11.63;;;17.30;99.90;;;;;;5095918;28;20052;-75
2023/06/11 02:19:57;;;;;;;14.40;11.15;;;17.30;99.90;;;;;;5096082;28;20044;-75
2023/06/11 02:22:23;;;;;;;14.13;11.73;;;17.30;99.90;;;;;;5095729;28;20123;-85
2023/06/11 02:24:49;;;;;;;16.17;10.90;;;17.30;99.90;;;;;;5094901;28;20052;-80
2023/06/11 02:27:14;;;;;;;13.57;11.45;;;17.30;99.90;;;;;;5094528;28;20138;-75
2023/06/11 02:29:40;;;;;;;16.80;11.25;;;17.30;99.90;;;;;;5095725;28;20048;-75
2023/06/11 02:32:07;;;;;;;13.90;10.82;;;17.30;99.90;;;;;;5096009;28;20040;-75
2023/06/11 02:34:32;;;;;;;12.30;11.10;;;17.30;99.90;;;;;;5095700;28;20043;-80
2023/06/11 02:36:58;;;;;;;13.10;11.48;;;17.30;99.90;;;;;;5095672;28;20039;-79
2023/06/11 02:39:23;;;;;;;14.25;11.95;;;17.20;99.90;;;;;;5095695;28;20152;-78
2023/06/11 02:41:49;;;;;;;18.10;11.18;;;17.30;99.90;;;;;;5094268;28;20391;-78
2023/06/11 02:44:15;;;;;;;14.43;11.18;;;17.20;99.90;;;;;;5095290;28;20036;-78
2023/06/11 02:46:41;;;;;;;14.90;11.65;;;17.20;99.90;;;;;;5095912;28;20078;-83
2023/06/11 02:49:06;;;;;;;13.07;11.18;;;17.20;99.90;;;;;;5095435;28;20044;-84
2023/06/11 02:51:32;;;;;;;13.60;11.57;;;17.20;99.90;;;;;;5095315;28;20043;-74
2023/06/11 02:53:58;;;;;;;13.23;11.73;;;17.20;99.90;;;;;;5093969;28;20044;-74
2023/06/11 02:56:23;;;;;;;14.23;11.27;;;17.20;99.90;;;;;;5093965;28;20048;-75
2023/06/11 02:58:49;;;;;;;18.27;12.48;;;17.10;99.90;;;;;;5095153;28;20040;-75
2023/06/11 03:01:15;;;;;;;14.05;12.55;;;17.20;99.90;;;;;;5093594;28;20079;-74
2023/06/11 03:03:41;;;;;;;15.18;12.13;;;17.10;99.90;;;;;;5093464;28;20127;-75
2023/06/11 03:06:06;;;;;;;14.40;11.73;;;17.10;99.90;;;;;;5093885;28;20071;-75
2023/06/11 03:08:32;;;;;;;16.42;11.15;;;17.10;99.90;;;;;;5093923;28;20032;-75
2023/06/11 03:10:58;;;;;;;13.60;11.52;;;17.10;99.90;;;;;;5094760;28;20537;-75
2023/06/11 03:13:23;;;;;;;14.55;12.13;;;17.10;99.90;;;;;;5093604;28;20036;-75
2023/06/11 03:15:49;;;;;;;13.80;12.35;;;17.10;99.90;;;;;;5093426;28;20445;-75
2023/06/11 03:18:15;;;;;;;16.73;12.10;;;17.00;99.90;;;;;;5094841;28;20077;-75
2023/06/11 03:20:41;;;;;;;13.15;11.82;;;17.00;99.90;;;;;;5093307;28;20423;-75
2023/06/11 03:23:07;;;;;;;15.25;12.40;;;17.00;99.90;;;;;;5094489;28;20048;-75
2023/06/11 03:25:33;;;;;;;14.07;11.68;;;17.00;99.90;;;;;;5094359;28;20566;-74
2023/06/11 03:27:58;;;;;;;15.77;12.45;;;17.00;99.90;;;;;;5094744;28;20131;-75
2023/06/11 03:30:24;;;;;;;13.93;12.55;;;16.90;99.90;;;;;;5094627;28;20406;-75
2023/06/11 03:32:50;;;;;;;13.40;12.02;;;16.90;99.90;;;;;;5093111;28;20123;-75
2023/06/11 03:35:16;;;;;;;14.93;12.57;;;16.90;99.90;;;;;;5094337;28;20127;-75
2023/06/11 03:37:42;;;;;;;15.70;12.73;;;16.90;99.90;;;;;;5094234;28;20392;-75
2023/06/11 03:40:08;;;;;;;14.02;11.75;;;16.90;99.90;;;;;;5093021;28;20089;-74
2023/06/11 03:42:34;;;;;;;13.82;11.82;;;16.90;99.90;;;;;;5094471;28;20105;-75
2023/06/11 03:44:59;;;;;;;14.20;12.68;;;16.90;99.90;;;;;;5092826;28;20036;-75
2023/06/11 03:47:25;;;;;;;16.42;12.65;;;16.90;99.90;;;;;;5092876;28;20078;-75
2023/06/11 03:49:51;;;;;;;15.77;13.43;;;16.90;99.90;;;;;;5094292;28;20146;-74
2023/06/11 03:52:17;;;;;;;17.92;13.70;;;16.90;99.90;;;;;;5094060;28;20119;-74
2023/06/11 03:54:42;;;;;;;15.10;12.98;;;16.90;99.90;;;;;;5094298;28;20127;-75
2023/06/11 03:57:08;;;;;;;13.70;11.93;;;16.90;99.90;;;;;;5093895;28;20082;-74
2023/06/11 03:59:34;;;;;;;15.93;13.38;;;16.90;99.90;;;;;;5092940;28;20044;-74
2023/06/11 04:02:00;;;;;;;15.13;12.85;;;16.90;99.90;;;;;;5093865;28;20076;-74
2023/06/11 04:04:26;;;;;;;15.13;12.88;;;16.90;99.90;;;;;;5093881;28;20051;-74
2023/06/11 04:06:51;;;;;;;16.60;12.88;;;16.90;99.90;;;;;;5094024;28;20039;-75
2023/06/11 04:09:17;;;;;;;18.27;12.88;;;16.90;99.90;;;;;;5093771;28;20048;-75
2023/06/11 04:11:43;;;;;;;15.93;12.77;;;17.10;99.90;;;;;;5092750;28;20083;-74
2023/06/11 04:14:08;;;;;;;15.13;12.43;;;17.10;99.90;;;;;;5093511;28;20403;-74
2023/06/11 04:16:34;;;;;;;16.17;13.02;;;17.20;99.90;;;;;;5093962;28;20483;-74
2023/06/11 04:18:59;;;;;;;18.05;12.82;;;17.30;99.90;;;;;;5092473;28;20040;-75
2023/06/11 04:21:25;;;;;;;16.92;12.90;;;17.30;99.90;;;;;;5093448;28;20043;-75
2023/06/11 04:23:51;;;;;;;18.40;13.43;;;17.40;99.90;;;;;;5093404;28;20497;-75
2023/06/11 04:26:19;;;;;;;15.60;12.93;;;17.50;99.90;;;;;;5092234;28;20047;-75
2023/06/11 04:28:45;;;;;;;18.20;13.57;;;17.50;99.90;;;;;;5092265;28;20052;-75
2023/06/11 04:31:11;;;;;;;16.98;12.93;;;17.70;99.90;;;;;;5093445;28;20047;-89
2023/06/11 04:33:40;;;;;;;14.45;12.45;;;17.70;99.90;;;;;;5092439;28;20047;-87
2023/06/11 04:36:08;;;;;;;15.43;12.55;;;17.80;99.90;;;;;;5093760;28;20044;-87
2023/06/11 04:38:36;;;;;;;15.48;12.27;;;17.90;99.90;;;;;;5093506;28;20048;-75
2023/06/11 04:41:05;;;;;;;13.75;12.32;;;18.00;99.90;;;;;;5092438;28;20510;-75
2023/06/11 04:43:33;;;;;;;13.48;11.95;;;18.00;99.90;;;;;;5093635;28;20044;-74
2023/06/11 04:45:59;;;;;;;19.17;12.50;;;18.10;99.90;;;;;;5093497;28;20036;-74
2023/06/11 04:48:28;;;;;;;14.13;11.45;;;18.20;99.90;;;;;;5092127;28;20064;-75
2023/06/11 04:50:54;;;;;;;15.98;12.55;;;18.30;99.90;;;;;;5093396;28;20514;-74
2023/06/11 04:53:24;;;;;;;15.77;11.98;;;18.40;99.90;;;;;;5093444;28;20036;-74
2023/06/11 04:55:51;;;;;;;16.27;12.05;;;18.40;99.90;;;;;;5093531;28;20170;-75
2023/06/11 04:58:21;;;;;;;18.27;11.60;;;18.50;99.90;;;;;;5093513;28;20071;-75
2023/06/11 05:00:51;;;;;;;13.70;12.05;;;18.60;99.90;;;;;;5092261;28;20560;-75
2023/06/11 05:03:17;;;;;;;17.73;12.73;;;18.60;99.90;;;;;;5091940;28;20040;-75
2023/06/11 05:05:51;;;;;;;14.43;12.68;;;18.70;99.90;;;;;;5093399;28;20045;-75
2023/06/11 05:08:21;;;;;;;14.68;12.30;;;18.90;99.90;;;;;;5093396;28;20149;-75
2023/06/11 05:10:47;;;;;;;16.58;11.35;;;18.90;99.90;;;;;;5093392;28;20040;-74
2023/06/11 05:13:13;;;;;;;12.40;11.10;;;19.00;99.90;;;;;;5093292;28;20040;-75
2023/06/11 05:15:40;;;;;;;15.35;11.70;;;19.10;99.90;;;;;;5093188;28;20040;-75
2023/06/11 05:18:06;;;;;;;15.75;12.45;;;19.20;99.90;;;;;;5093089;28;20090;-75
2023/06/11 05:20:32;;;;;;;12.77;11.40;;;19.30;99.90;;;;;;5093212;28;20036;-75
2023/06/11 05:23:02;;;;;;;14.18;11.77;;;19.30;99.90;;;;;;5092965;28;20143;-75
2023/06/11 05:25:29;;;;;;;15.25;11.85;;;19.40;99.90;;;;;;5093289;28;20118;-75
2023/06/11 05:27:57;;;;;;;13.88;11.63;;;19.50;99.90;;;;;;5091766;28;20047;-75
2023/06/11 05:30:25;;;;;;;16.13;11.50;;;19.60;99.90;;;;;;5092994;28;20368;-75
2023/06/11 05:32:51;;;;;;;12.85;11.55;;;19.60;99.90;;;;;;5093500;28;20047;-75
2023/06/11 05:35:17;;;;;;;13.30;11.55;;;19.70;99.90;;;;;;5095237;28;20105;-75
2023/06/11 05:37:43;;;;;;;12.55;11.23;;;19.90;99.90;;;;;;5096835;28;20032;-75
2023/06/11 05:40:11;;;;;;;12.65;10.88;;;19.90;99.90;;;;;;5095509;28;20499;-75
2023/06/11 05:42:36;;;;;;;14.13;11.52;;;20.00;99.90;;;;;;5095226;28;20051;-75
2023/06/11 05:45:03;;;;;;;12.82;10.93;;;19.90;99.90;;;;;;5096346;28;20044;-75
2023/06/11 05:47:29;;;;;;;14.27;10.38;;;20.10;99.90;;;;;;5095156;28;20080;-75
2023/06/11 05:49:55;;;;;;;12.50;11.20;;;20.10;99.90;;;;;;5096502;28;20131;-75
2023/06/11 05:52:21;;;;;;;13.90;11.00;;;20.20;99.90;;;;;;5095299;28;20048;-75
2023/06/11 05:54:46;;;;;;;12.35;10.82;;;20.40;99.90;;;;;;5095025;28;20051;-76
2023/06/11 05:57:25;;;;;;;13.23;11.82;;;20.50;99.90;;;;;;5094936;28;20141;-76
2023/06/11 05:59:51;;;;;;;14.13;10.63;;;20.70;99.90;;;;;;5094965;28;20048;-76
2023/06/11 06:02:18;;;;;;;16.85;11.35;;;20.70;99.90;;;;;;5094947;28;20048;-76
2023/06/11 06:04:47;;;;;;;13.88;10.88;;;20.80;99.90;;;;;;5096283;28;20052;-76
2023/06/11 06:07:13;;;;;;;12.80;10.32;;;21.00;99.90;;;;;;5096226;28;20063;-76
2023/06/11 06:09:39;;;;;;;14.43;11.27;;;21.10;99.90;;;;;;5094845;28;20089;-76
2023/06/11 06:12:06;;;;;;;12.68;10.50;;;21.30;99.90;;;;;;5096174;28;20044;-75
2023/06/11 06:14:31;;;;;;;14.32;11.25;;;21.30;99.90;;;;;;5094678;28;20047;-89
2023/06/11 06:16:58;;;;;;;11.60;10.40;;;21.40;99.90;;;;;;5094491;28;20054;-76
2023/06/11 06:19:23;;;;;;;11.80;10.30;;;21.50;99.90;;;;;;5095795;28;20047;-76
2023/06/11 06:21:49;;;;;;;11.27;10.00;;;21.60;99.90;;;;;;5094532;28;20047;-76
2023/06/11 06:24:15;;;;;;;12.75;10.65;;;21.70;99.90;;;;;;5094333;28;20052;-75
2023/06/11 06:26:40;;;;;;;13.18;10.60;;;21.80;99.90;;;;;;5095002;28;20056;-79
2023/06/11 06:29:10;;;;;;;13.88;10.80;;;21.90;99.90;;;;;;5095493;28;20513;-76
2023/06/11 06:31:36;;;;;;;14.25;10.40;;;22.00;99.90;;;;;;5095709;28;20534;-76
2023/06/11 06:34:03;;;;;;;13.30;10.93;;;22.10;99.90;;;;;;5095514;28;20497;-78
2023/06/11 06:36:28;;;;;;;12.15;10.88;;;22.10;99.90;;;;;;5094298;28;20083;-76
2023/06/11 06:38:54;;;;;;;13.93;10.98;;;22.20;99.90;;;;;;5094106;28;20079;-75
2023/06/11 06:41:20;;;;;;;15.80;11.05;;;22.30;99.90;;;;;;5094001;28;20088;-78
2023/06/11 06:43:46;;;;;;;13.05;10.68;;;22.20;99.90;;;;;;5085853;28;20135;-76
2023/06/11 06:46:11;;;;;;;12.70;10.70;;;22.30;99.90;;;;;;5073833;28;20048;-77
2023/06/11 06:48:37;;;;;;;17.95;10.43;;;22.60;99.90;;;;;;5073533;28;20135;-76
2023/06/11 06:51:03;;;;;;;13.80;10.32;;;22.70;99.90;;;;;;5074966;28;20479;-76
2023/06/11 06:53:28;;;;;;;13.32;10.98;;;22.70;99.90;;;;;;5074703;28;20072;-76
2023/06/11 06:55:54;;;;;;;17.02;10.48;;;22.80;99.90;;;;;;5073483;28;20049;-77
2023/06/11 06:58:20;;;;;;;17.05;11.00;;;23.00;99.90;;;;;;5074368;28;20044;-76
2023/06/11 07:00:46;;;;;;;15.02;10.93;;;23.10;99.90;;;;;;5073615;28;20052;-77
2023/06/11 07:03:13;;;;;;;14.68;11.05;;;23.10;99.90;;;;;;5073493;28;20047;-77
2023/06/11 07:05:40;;;;;;;16.20;11.70;;;23.20;99.90;;;;;;5074425;28;20044;-76
2023/06/11 07:08:05;;;;;;;13.60;10.77;;;23.00;99.90;;;;;;5074646;28;20059;-76
2023/06/11 07:10:31;;;;;;;13.65;11.00;;;23.20;99.90;;;;;;5073364;28;20049;-76
2023/06/11 07:12:57;;;;;;;13.02;11.65;;;23.30;99.90;;;;;;5074273;28;20052;-75
2023/06/11 07:15:22;;;;;;;12.52;11.15;;;23.50;99.90;;;;;;5074361;28;20044;-78
2023/06/11 07:17:48;;;;;;;12.05;10.82;;;23.50;99.90;;;;;;5073258;28;20044;-76
2023/06/11 07:20:14;;;;;;;14.82;10.98;;;23.40;99.90;;;;;;5074148;28;20059;-76
2023/06/11 07:22:41;;;;;;;12.00;10.77;;;23.70;99.90;;;;;;5074114;28;20056;-79
2023/06/11 07:25:07;;;;;;;12.85;11.13;;;23.70;99.90;;;;;;5074036;28;20491;-77
2023/06/11 07:27:33;;;;;;;13.90;12.43;;;23.80;99.90;;;;;;5073790;28;20395;-77
2023/06/11 07:29:59;;;;;;;12.07;10.77;;;23.80;99.90;;;;;;5074220;28;20535;-78
2023/06/11 07:32:25;;;;;;;12.73;11.05;;;24.00;99.90;;;;;;5072667;28;20112;-78
2023/06/11 07:34:50;;;;;;;13.40;11.27;;;24.10;99.90;;;;;;5073737;28;20485;-76
2023/06/11 07:37:16;;;;;;;15.65;11.80;;;24.30;99.90;;;;;;5073772;28;20101;-76
2023/06/11 07:39:42;;;;;;;13.80;10.73;;;24.30;99.90;;;;;;5073743;28;20492;-76
2023/06/11 07:42:08;;;;;;;15.88;11.20;;;24.40;99.90;;;;;;5072686;28;20391;-77
2023/06/11 07:44:34;;;;;;;12.27;10.68;;;24.50;99.90;;;;;;5072481;28;20048;-77
2023/06/11 07:47:00;;;;;;;13.50;10.75;;;24.60;99.90;;;;;;5073662;28;20048;-78
2023/06/11 07:49:26;;;;;;;14.07;11.32;;;24.60;99.90;;;;;;5073564;28;20047;-77
2023/06/11 07:51:51;;;;;;;12.38;11.18;;;24.70;99.90;;;;;;5072390;28;20118;-77
2023/06/11 07:54:17;;;;;;;13.27;11.70;;;24.80;99.90;;;;;;5072286;28;20055;-76
2023/06/11 07:56:46;;;;;;;14.00;11.57;;;25.00;99.90;;;;;;5071511;28;20076;-76
2023/06/11 07:59:12;;;;;;;12.77;11.48;;;25.00;99.90;;;;;;5072392;28;20503;-76
2023/06/11 08:01:38;;;;;;;12.30;10.90;;;25.20;99.90;;;;;;5072196;28;20044;-76
2023/06/11 08:04:04;;;;;;;14.05;12.52;;;25.30;99.90;;;;;;5073695;28;20123;-76
2023/06/11 08:06:30;;;;;;;12.05;10.88;;;25.10;99.90;;;;;;5073510;28;20044;-77
2023/06/11 08:08:56;;;;;;;12.32;10.93;;;25.30;99.90;;;;;;5073387;28;20055;-77
2023/06/11 08:11:22;;;;;;;15.38;11.35;;;25.40;99.90;;;;;;5073638;28;20094;-77
2023/06/11 08:13:47;;;;;;;12.77;11.48;;;25.50;99.90;;;;;;5072241;28;20041;-78
2023/06/11 08:16:15;;;;;;;13.05;11.63;;;25.60;99.90;;;;;;5072063;28;20131;-77
2023/06/11 08:18:41;;;;;;;12.43;11.13;;;25.60;99.90;;;;;;5072322;28;20041;-77
2023/06/11 08:21:06;;;;;;;14.80;10.85;;;25.80;99.90;;;;;;5072015;28;20570;-77
2023/06/11 08:23:35;;;;;;;14.95;10.93;;;25.70;99.90;;;;;;5071692;28;20052;-77
2023/06/11 08:26:03;;;;;;;13.18;11.27;;;25.80;99.90;;;;;;5072140;28;20076;-77
2023/06/11 08:28:29;;;;;;;16.25;11.05;;;25.90;99.90;;;;;;5072143;28;20098;-77
2023/06/11 08:30:55;;;;;;;15.07;10.88;;;26.10;99.90;;;;;;5072539;28;20080;-78
2023/06/11 08:33:21;;;;;;;12.00;10.75;;;26.20;99.90;;;;;;5073396;28;20041;-77
2023/06/11 08:35:47;;;;;;;11.65;10.27;;;26.40;99.90;;;;;;5073246;28;20036;-76
2023/06/11 08:38:13;;;;;;;12.85;11.40;;;26.50;99.90;;;;;;5072964;28;20525;-76
2023/06/11 08:40:40;;;;;;;11.90;10.57;;;26.40;99.90;;;;;;5073337;28;20052;-77
2023/06/11 08:43:08;;;;;;;11.68;10.57;;;26.50;99.90;;;;;;5071749;28;20047;-77
2023/06/11 08:45:33;;;;;;;13.02;11.23;;;26.60;99.90;;;;;;5073368;28;20044;-77
2023/06/11 08:48:02;;;;;;;12.65;11.35;;;26.70;99.90;;;;;;5072975;28;20097;-77
2023/06/11 08:50:31;;;;;;;17.00;12.30;;;26.70;99.90;;;;;;5072920;28;20053;-75
2023/06/11 08:53:00;;;;;;;14.63;11.30;;;26.50;99.90;;;;;;5073168;28;20040;-76
2023/06/11 08:55:26;;;;;;;12.40;10.90;;;26.60;99.90;;;;;;5073137;28;20048;-76
2023/06/11 08:57:52;;;;;;;12.07;10.88;;;26.70;99.90;;;;;;5072801;28;20552;-76
2023/06/11 09:00:18;;;;;;;16.90;10.90;;;26.90;99.90;;;;;;5071611;28;20040;-76
2023/06/11 09:02:44;;;;;;;12.80;11.55;;;27.10;99.90;;;;;;5072763;28;20391;-77
2023/06/11 09:05:11;;;;;;;14.27;10.80;;;27.10;99.90;;;;;;5071563;28;20048;-77
2023/06/11 09:07:37;;;;;;;13.32;10.93;;;27.10;99.90;;;;;;5074409;28;20044;-78
2023/06/11 09:10:10;;;;;;;12.80;11.45;;;27.20;99.90;;;;;;5075793;28;20049;-78
2023/06/11 09:12:36;;;;;;;13.52;10.98;;;27.20;99.90;;;;;;5075595;28;20052;-77
2023/06/11 09:15:04;;;;;;;12.60;10.88;;;27.40;99.90;;;;;;5076523;28;20044;-77
2023/06/11 09:17:37;;;;;;;11.57;10.50;;;27.40;99.90;;;;;;5076551;28;20045;-78
2023/06/11 09:20:05;;;;;;;15.15;10.70;;;27.60;99.90;;;;;;5075166;28;20043;-76
2023/06/11 09:22:31;;;;;;;13.73;11.50;;;27.60;99.90;;;;;;5076476;28;20141;-79
2023/06/11 09:25:01;;;;;;;15.73;10.90;;;27.60;99.90;;;;;;5076392;28;20124;-78
2023/06/11 09:27:27;;;;;;;16.00;10.73;;;27.80;99.90;;;;;;5076482;28;20037;-77
2023/06/11 09:29:53;;;;;;;16.40;11.57;;;28.00;99.90;;;;;;5075055;28;20053;-78
2023/06/11 09:32:19;;;;;;;13.50;11.25;;;28.10;99.90;;;;;;5075206;28;20090;-77
2023/06/11 09:34:45;;;;;;;11.43;10.35;;;28.30;99.90;;;;;;5076348;28;20080;-78
2023/06/11 09:37:11;;;;;;;12.35;11.05;;;28.40;99.90;;;;;;5074903;28;20052;-78
2023/06/11 09:39:39;;;;;;;11.88;10.70;;;28.60;99.90;;;;;;5076094;28;20056;-77
2023/06/11 09:42:05;;;;;;;11.93;10.75;;;28.20;99.90;;;;;;5076072;28;20555;-76
2023/06/11 09:44:33;;;;;;;12.98;11.07;;;28.40;99.90;;;;;;5076392;28;20124;-78
2023/06/11 09:47:00;;;;;;;12.48;11.07;;;28.60;99.90;;;;;;5075862;28;20049;-76
2023/06/11 09:49:26;;;;;;;11.48;10.38;;;28.60;99.90;;;;;;5074617;28;20052;-76
2023/06/11 09:51:53;;;;;;;12.50;11.38;;;28.50;99.90;;;;;;5076210;28;20055;-75
2023/06/11 09:54:21;;;;;;;14.23;10.70;;;28.40;99.90;;;;;;5075720;28;20422;-76
2023/06/11 09:56:47;;;;;;;15.00;10.43;;;28.70;99.90;;;;;;5075891;28;20040;-77
2023/06/11 09:59:17;;;;;;;14.43;11.02;;;28.80;99.90;;;;;;5075780;28;20041;-75
2023/06/11 10:01:47;;;;;;;12.60;10.95;;;28.70;99.90;;;;;;5075610;28;20123;-76
2023/06/11 10:04:12;;;;;;;11.82;10.63;;;28.60;99.90;;;;;;5076230;28;20037;-77
2023/06/11 10:06:46;;;;;;;12.52;11.00;;;28.90;99.90;;;;;;5075725;28;20051;-76
2023/06/11 10:09:15;;;;;;;12.55;10.48;;;29.00;99.90;;;;;;5074450;28;20049;-78
2023/06/11 10:11:41;;;;;;;15.05;10.95;;;29.30;99.90;;;;;;5074832;28;20063;-77
2023/06/11 10:14:15;;;;;;;13.32;11.25;;;29.30;99.90;;;;;;5075467;28;20060;-78
2023/06/11 10:16:49;;;;;;;11.27;10.20;;;29.50;99.90;;;;;;5074211;28;20045;-78
2023/06/11 10:19:15;;;;;;;11.45;10.35;;;29.50;99.90;;;;;;5075028;28;20036;-77
2023/06/11 10:21:49;;;;;;;12.95;10.23;;;29.30;99.90;;;;;;5075514;28;20059;-78
2023/06/11 10:24:22;;;;;;;11.27;9.90;;;29.50;99.90;;;;;;5074016;28;20057;-77
2023/06/11 10:27:07;;;;;;;11.15;10.15;;;29.30;99.90;;;;;;5075441;28;20094;-77
2023/06/11 10:29:46;;;;;;;10.93;9.82;;;29.50;99.90;;;;;;5075250;28;20044;-77
2023/06/11 10:32:21;;;;;;;11.90;10.38;;;29.60;99.90;;;;;;5075485;28;20044;-77
2023/06/11 10:34:53;;;;;;;10.73;9.65;;;29.70;99.90;;;;;;5075337;28;20139;-76
2023/06/11 10:37:40;;;;;;;11.30;10.20;;;29.80;99.90;;;;;;5075158;28;20082;-76
2023/06/11 10:40:08;;;;;;;12.27;10.45;;;29.90;99.90;;;;;;5074162;28;20135;-77
2023/06/11 10:42:38;;;;;;;12.15;10.50;;;30.00;99.90;;;;;;5074978;28;20052;-77
2023/06/11 10:45:09;;;;;;;11.05;9.95;;;29.80;99.90;;;;;;5073724;28;20049;-76
2023/06/11 10:47:46;;;;;;;11.32;9.90;;;29.80;99.90;;;;;;5094218;28;20076;-77
2023/06/11 10:50:14;;;;;;;10.02;9.00;;;29.80;99.90;;;;;;5094980;28;20472;-77
2023/06/11 10:52:58;;;;;;;10.55;9.52;;;30.00;99.90;;;;;;5094156;28;20043;-77
2023/06/11 10:55:26;;;;;;;11.10;9.90;;;30.20;99.90;;;;;;5095053;28;20070;-77
2023/06/11 10:57:57;;;;;;;10.43;9.40;;;30.20;99.90;;;;;;5095228;28;20044;-77
2023/06/11 11:00:24;;;;;;;10.50;9.50;;;30.30;99.90;;;;;;5095390;28;20086;-77
2023/06/11 11:02:52;;;;;;;13.02;9.27;;;30.40;99.90;;;;;;5095039;28;20071;-78
2023/06/11 11:05:19;;;;;;;10.20;9.20;;;30.30;99.90;;;;;;5093849;28;20059;-77
2023/06/11 11:07:45;;;;;;;10.45;9.30;;;30.40;99.90;;;;;;5094943;28;20403;-78
2023/06/11 11:10:18;;;;;;;10.95;9.80;;;30.60;99.90;;;;;;5093625;28;20051;-77
2023/06/11 11:12:48;;;;;;;10.35;9.32;;;30.60;99.70;;;;;;5093642;28;20075;-79
2023/06/11 11:15:14;;;;;;;10.45;9.32;;;30.40;98.50;;;;;;5094979;28;20044;-78
2023/06/11 11:17:40;;;;;;;11.05;9.48;;;30.60;99.90;;;;;;5095014;28;20111;-78
2023/06/11 11:20:08;;;;;;;12.65;9.15;;;30.50;98.90;;;;;;5094879;28;20052;-77
2023/06/11 11:22:35;;;;;;;10.68;9.35;;;30.70;99.40;;;;;;5094474;28;20070;-78
2023/06/11 11:25:04;;;;;;;10.07;8.82;;;30.90;99.10;;;;;;5094440;28;20051;-78
2023/06/11 11:27:30;;;;;;;11.23;9.00;;;30.90;99.10;;;;;;5094388;28;20043;-77
2023/06/11 11:29:58;;;;;;;10.02;9.02;;;30.90;99.10;;;;;;5094449;28;20046;-77
2023/06/11 11:32:30;;;;;;;10.23;8.50;;;30.80;97.30;;;;;;5092781;28;20044;-77
2023/06/11 11:34:56;;;;;;;9.43;8.52;;;30.90;98.10;;;;;;5094435;28;20097;-77
2023/06/11 11:37:22;;;;;;;9.63;8.68;;;30.90;95.90;;;;;;5094379;28;20086;-77
2023/06/11 11:39:49;;;;;;;12.98;9.10;;;30.90;96.60;;;;;;5094195;28;20048;-78
2023/06/11 11:42:15;;;;;;;9.50;8.63;;;31.10;97.70;;;;;;5094278;28;20503;-77
2023/06/11 11:44:42;;;;;;;10.13;8.38;;;31.30;99.20;;;;;;5093238;28;20036;-77
2023/06/11 11:47:11;;;;;;;10.35;9.10;;;31.40;97.30;;;;;;5094374;28;20111;-83
2023/06/11 11:49:38;;;;;;;8.95;8.05;;;31.20;95.90;;;;;;5094313;28;20036;-77
2023/06/11 11:52:06;;;;;;;9.95;8.95;;;31.20;96.60;;;;;;5092774;28;20098;-77
2023/06/11 11:54:32;;;;;;;9.48;8.57;;;31.10;94.60;;;;;;5093851;28;20376;-77
2023/06/11 11:57:07;;;;;;;10.57;8.35;;;31.20;97.40;;;;;;5094290;28;20044;-77
2023/06/11 11:59:40;;;;;;;10.70;8.55;;;31.30;97.50;;;;;;5093889;28;20044;-82
2023/06/11 12:02:07;;;;;;;9.05;8.18;;;31.20;94.80;;;;;;5094038;28;20039;-79
2023/06/11 12:04:45;;;;;;;10.30;8.20;;;31.40;97.90;;;;;;5092573;28;20118;-77
2023/06/11 12:07:14;;;;;;;10.27;8.27;;;31.40;95.60;;;;;;5092888;28;20055;-78
2023/06/11 12:09:41;;;;;;;8.43;7.63;;;31.40;96.30;;;;;;5093911;28;20040;-77
2023/06/11 12:12:07;;;;;;;9.00;8.00;;;31.20;92.80;;;;;;5094088;28;20043;-77
2023/06/11 12:14:34;;;;;;;10.55;8.75;;;31.20;93.30;;;;;;5092700;28;20043;-78
2023/06/11 12:17:00;;;;;;;9.68;8.57;;;30.90;92.30;;;;;;5093597;28;20529;-77
2023/06/11 12:19:28;;;;;;;8.82;7.88;;;31.20;94.00;;;;;;5092955;28;20029;-77
2023/06/11 12:21:55;;;;;;;9.95;8.95;;;31.20;93.80;;;;;;5093881;28;20082;-78
2023/06/11 12:24:22;;;;;;;9.80;8.25;;;31.40;93.60;;;;;;5093474;28;20048;-77
2023/06/11 12:26:49;;;;;;;9.82;7.72;;;31.10;92.00;;;;;;5093795;28;20044;-76
2023/06/11 12:29:16;;;;;;;10.52;8.80;;;31.20;90.90;;;;;;5092569;28;20044;-78
2023/06/11 12:31:41;;;;;;;10.27;8.25;;;30.90;90.20;;;;;;5093459;28;20044;-78